sensor_id;sensor_type;location;lat;lon;timestamp;pressure;altitude;pressure_sealevel;temperature;humidity
11605;BME280;5858;43.076;25.626;2023-02-22T00:01:30;99180.81;;;11.50;47.85
11605;BME280;5858;43.076;25.626;2023-02-22T00:04:04;98952.34;;;10.15;48.24
11605;BME280;5858;43.076;25.626;2023-02-22T00:06:34;99160.44;;;11.56;48.77
11605;BME280;5858;43.076;25.626;2023-02-22T00:09:04;99077.72;;;10.97;48.81
11605;BME280;5858;43.076;25.626;2023-02-22T00:12:19;99199.69;;;11.42;48.92
11605;BME280;5858;43.076;25.626;2023-02-22T00:14:46;99192.28;;;11.44;49.12
11605;BME280;5858;43.076;25.626;2023-02-22T00:24:23;99137.09;;;11.28;49.55
11605;BME280;5858;43.076;25.626;2023-02-22T00:27:00;99018.81;;;10.54;49.38
11605;BME280;5858;43.076;25.626;2023-02-22T00:40:15;99144.38;;;11.34;49.75
11605;BME280;5858;43.076;25.626;2023-02-22T00:43:00;99141.06;;;11.32;50.36
11605;BME280;5858;43.076;25.626;2023-02-22T00:45:31;99022.69;;;10.52;49.78
11605;BME280;5858;43.076;25.626;2023-02-22T00:48:06;99021.16;;;10.64;50.46
11605;BME280;5858;43.076;25.626;2023-02-22T00:50:34;98991.31;;;10.24;50.52
11605;BME280;5858;43.076;25.626;2023-02-22T00:53:07;99080.34;;;10.76;51.43
11605;BME280;5858;43.076;25.626;2023-02-22T00:55:37;98954.03;;;10.01;50.72
11605;BME280;5858;43.076;25.626;2023-02-22T00:58:06;99004.50;;;10.26;50.97
11605;BME280;5858;43.076;25.626;2023-02-22T01:00:36;98956.97;;;10.06;50.82
11605;BME280;5858;43.076;25.626;2023-02-22T01:03:04;99101.81;;;10.97;50.87
11605;BME280;5858;43.076;25.626;2023-02-22T01:05:32;99157.56;;;11.15;51.23
11605;BME280;5858;43.076;25.626;2023-02-22T01:11:09;99153.38;;;11.06;52.88
11605;BME280;5858;43.076;25.626;2023-02-22T01:15:28;98977.75;;;9.75;53.99
11605;BME280;5858;43.076;25.626;2023-02-22T01:17:57;99052.91;;;10.16;55.30
11605;BME280;5858;43.076;25.626;2023-02-22T01:20:58;99140.59;;;10.50;55.85
11605;BME280;5858;43.076;25.626;2023-02-22T01:23:30;99135.69;;;10.54;56.58
11605;BME280;5858;43.076;25.626;2023-02-22T01:26:00;99063.16;;;9.98;56.64
11605;BME280;5858;43.076;25.626;2023-02-22T01:28:30;99098.38;;;10.01;57.05
11605;BME280;5858;43.076;25.626;2023-02-22T01:30:59;99086.00;;;9.86;57.76
11605;BME280;5858;43.076;25.626;2023-02-22T01:33:29;99025.69;;;9.47;57.59
11605;BME280;5858;43.076;25.626;2023-02-22T01:36:04;99070.53;;;9.66;58.21
11605;BME280;5858;43.076;25.626;2023-02-22T01:38:35;99098.25;;;9.80;58.39
11605;BME280;5858;43.076;25.626;2023-02-22T01:41:05;99136.53;;;9.95;58.56
11605;BME280;5858;43.076;25.626;2023-02-22T01:43:33;99117.59;;;9.67;58.38
11605;BME280;5858;43.076;25.626;2023-02-22T01:46:03;99073.16;;;9.37;59.35
11605;BME280;5858;43.076;25.626;2023-02-22T01:48:43;99138.59;;;9.70;60.21
11605;BME280;5858;43.076;25.626;2023-02-22T01:51:14;99072.13;;;9.23;60.38
11605;BME280;5858;43.076;25.626;2023-02-22T01:53:47;98960.19;;;8.46;60.18
11605;BME280;5858;43.076;25.626;2023-02-22T01:56:28;98951.81;;;8.49;60.23
11605;BME280;5858;43.076;25.626;2023-02-22T01:58:59;99140.91;;;9.59;60.62
11605;BME280;5858;43.076;25.626;2023-02-22T02:01:32;99060.41;;;9.09;60.55
11605;BME280;5858;43.076;25.626;2023-02-22T02:04:08;98967.78;;;8.35;60.22
11605;BME280;5858;43.076;25.626;2023-02-22T02:06:36;99170.00;;;9.54;60.49
11605;BME280;5858;43.076;25.626;2023-02-22T02:09:12;99015.19;;;8.70;60.76
11605;BME280;5858;43.076;25.626;2023-02-22T02:11:40;99046.22;;;8.86;61.38
11605;BME280;5858;43.076;25.626;2023-02-22T02:14:10;99044.00;;;8.75;61.71
11605;BME280;5858;43.076;25.626;2023-02-22T02:16:45;99152.06;;;9.39;62.00
11605;BME280;5858;43.076;25.626;2023-02-22T02:19:20;99063.81;;;8.95;61.86
11605;BME280;5858;43.076;25.626;2023-02-22T02:22:18;99052.50;;;8.93;61.52
11605;BME280;5858;43.076;25.626;2023-02-22T02:25:23;99142.88;;;9.42;61.62
11605;BME280;5858;43.076;25.626;2023-02-22T02:28:13;99145.25;;;9.37;62.19
11605;BME280;5858;43.076;25.626;2023-02-22T02:31:09;99062.97;;;8.80;62.55
11605;BME280;5858;43.076;25.626;2023-02-22T02:33:50;98970.59;;;8.10;62.42
11605;BME280;5858;43.076;25.626;2023-02-22T02:36:27;99041.47;;;8.50;62.65
11605;BME280;5858;43.076;25.626;2023-02-22T02:39:04;98950.16;;;7.95;62.60
11605;BME280;5858;43.076;25.626;2023-02-22T02:41:36;98979.19;;;8.20;61.98
11605;BME280;5858;43.076;25.626;2023-02-22T02:44:10;98970.59;;;8.02;61.90
11605;BME280;5858;43.076;25.626;2023-02-22T02:46:46;99144.50;;;9.28;61.71
11605;BME280;5858;43.076;25.626;2023-02-22T02:49:20;99019.72;;;8.39;61.69
11605;BME280;5858;43.076;25.626;2023-02-22T02:51:51;99050.31;;;8.51;61.72
11605;BME280;5858;43.076;25.626;2023-02-22T02:54:21;99030.59;;;8.60;61.89
11605;BME280;5858;43.076;25.626;2023-02-22T02:56:52;98988.06;;;8.13;62.62
11605;BME280;5858;43.076;25.626;2023-02-22T02:59:25;99076.41;;;8.87;62.39
11605;BME280;5858;43.076;25.626;2023-02-22T03:02:02;99152.03;;;9.25;62.00
11605;BME280;5858;43.076;25.626;2023-02-22T03:05:01;99105.00;;;9.01;62.16
11605;BME280;5858;43.076;25.626;2023-02-22T03:07:44;99035.06;;;8.37;62.65
11605;BME280;5858;43.076;25.626;2023-02-22T03:10:30;98998.22;;;8.09;62.79
11605;BME280;5858;43.076;25.626;2023-02-22T03:13:08;99003.25;;;8.35;63.27
11605;BME280;5858;43.076;25.626;2023-02-22T03:15:46;99145.75;;;9.18;63.11
11605;BME280;5858;43.076;25.626;2023-02-22T03:18:23;98972.97;;;7.97;62.89
11605;BME280;5858;43.076;25.626;2023-02-22T03:20:59;99145.22;;;9.22;63.28
11605;BME280;5858;43.076;25.626;2023-02-22T03:23:32;99134.56;;;8.91;63.51
11605;BME280;5858;43.076;25.626;2023-02-22T03:26:03;99000.91;;;8.01;63.60
11605;BME280;5858;43.076;25.626;2023-02-22T03:28:35;99072.38;;;8.68;63.68
11605;BME280;5858;43.076;25.626;2023-02-22T03:31:09;99012.09;;;8.28;63.99
11605;BME280;5858;43.076;25.626;2023-02-22T03:33:40;98996.41;;;8.02;64.39
11605;BME280;5858;43.076;25.626;2023-02-22T03:36:13;99111.97;;;8.79;64.27
11605;BME280;5858;43.076;25.626;2023-02-22T03:38:43;99037.28;;;8.25;63.97
11605;BME280;5858;43.076;25.626;2023-02-22T03:41:13;98981.47;;;7.93;63.75
11605;BME280;5858;43.076;25.626;2023-02-22T03:43:45;99139.06;;;8.99;64.32
11605;BME280;5858;43.076;25.626;2023-02-22T03:46:17;99155.06;;;8.99;64.66
11605;BME280;5858;43.076;25.626;2023-02-22T03:48:48;98976.06;;;7.78;64.25
11605;BME280;5858;43.076;25.626;2023-02-22T03:51:23;99173.41;;;8.94;64.60
11605;BME280;5858;43.076;25.626;2023-02-22T03:53:51;99056.47;;;8.20;64.78
11605;BME280;5858;43.076;25.626;2023-02-22T03:56:21;99101.13;;;8.58;65.05
11605;BME280;5858;43.076;25.626;2023-02-22T03:58:50;99145.59;;;8.88;65.42
11605;BME280;5858;43.076;25.626;2023-02-22T04:01:20;98974.97;;;7.64;65.40
11605;BME280;5858;43.076;25.626;2023-02-22T04:03:48;99070.41;;;8.31;65.78
11605;BME280;5858;43.076;25.626;2023-02-22T04:06:15;98963.34;;;7.57;65.46
11605;BME280;5858;43.076;25.626;2023-02-22T04:08:44;99124.13;;;8.59;65.43
11605;BME280;5858;43.076;25.626;2023-02-22T04:11:12;99046.59;;;7.90;65.54
11605;BME280;5858;43.076;25.626;2023-02-22T04:13:39;99154.22;;;8.67;65.71
11605;BME280;5858;43.076;25.626;2023-02-22T04:16:06;99076.31;;;8.18;65.90
11605;BME280;5858;43.076;25.626;2023-02-22T04:18:36;98998.47;;;7.52;66.26
11605;BME280;5858;43.076;25.626;2023-02-22T04:21:04;98996.47;;;7.46;66.66
11605;BME280;5858;43.076;25.626;2023-02-22T04:23:31;99152.56;;;8.66;66.20
11605;BME280;5858;43.076;25.626;2023-02-22T04:26:01;99116.22;;;8.34;66.23
11605;BME280;5858;43.076;25.626;2023-02-22T04:28:29;99062.75;;;7.88;66.66
11605;BME280;5858;43.076;25.626;2023-02-22T04:30:56;99160.44;;;8.60;66.91
11605;BME280;5858;43.076;25.626;2023-02-22T04:33:23;99079.91;;;7.86;67.63
11605;BME280;5858;43.076;25.626;2023-02-22T04:35:52;99105.63;;;8.18;67.67
11605;BME280;5858;43.076;25.626;2023-02-22T04:38:24;99086.25;;;7.85;67.67
11605;BME280;5858;43.076;25.626;2023-02-22T04:40:52;99123.25;;;8.19;67.41
11605;BME280;5858;43.076;25.626;2023-02-22T04:43:22;99013.25;;;7.63;67.34
11605;BME280;5858;43.076;25.626;2023-02-22T04:45:50;99124.03;;;8.36;66.87
11605;BME280;5858;43.076;25.626;2023-02-22T04:48:20;98993.03;;;7.30;68.24
11605;BME280;5858;43.076;25.626;2023-02-22T04:50:47;99010.94;;;7.52;68.20
11605;BME280;5858;43.076;25.626;2023-02-22T04:53:20;98974.06;;;7.33;68.29
11605;BME280;5858;43.076;25.626;2023-02-22T04:55:50;99163.69;;;8.39;68.49
11605;BME280;5858;43.076;25.626;2023-02-22T04:58:18;99024.34;;;7.75;68.60
11605;BME280;5858;43.076;25.626;2023-02-22T05:00:46;99192.16;;;8.46;68.46
11605;BME280;5858;43.076;25.626;2023-02-22T05:03:14;99163.88;;;8.37;68.70
11605;BME280;5858;43.076;25.626;2023-02-22T05:05:41;99066.91;;;7.91;68.69
11605;BME280;5858;43.076;25.626;2023-02-22T05:08:09;99017.09;;;7.52;69.81
11605;BME280;5858;43.076;25.626;2023-02-22T05:10:39;99053.44;;;7.84;69.76
11605;BME280;5858;43.076;25.626;2023-02-22T05:13:20;99087.22;;;7.92;70.09
11605;BME280;5858;43.076;25.626;2023-02-22T05:15:49;98974.69;;;7.43;70.59
11605;BME280;5858;43.076;25.626;2023-02-22T05:18:17;99024.69;;;7.72;70.61
11605;BME280;5858;43.076;25.626;2023-02-22T05:20:49;99162.53;;;8.72;70.46
11605;BME280;5858;43.076;25.626;2023-02-22T05:23:17;99045.38;;;8.01;69.71
11605;BME280;5858;43.076;25.626;2023-02-22T05:25:50;99102.53;;;8.37;70.18
11605;BME280;5858;43.076;25.626;2023-02-22T05:28:17;99177.53;;;8.73;69.81
11605;BME280;5858;43.076;25.626;2023-02-22T05:30:47;98999.13;;;7.63;69.66
11605;BME280;5858;43.076;25.626;2023-02-22T05:33:19;99180.50;;;8.78;70.33
11605;BME280;5858;43.076;25.626;2023-02-22T05:35:47;99126.53;;;8.37;69.59
11605;BME280;5858;43.076;25.626;2023-02-22T05:38:15;99074.75;;;8.24;69.46
11605;BME280;5858;43.076;25.626;2023-02-22T05:40:43;99091.22;;;8.35;68.96
11605;BME280;5858;43.076;25.626;2023-02-22T05:43:13;99126.25;;;8.63;69.71
11605;BME280;5858;43.076;25.626;2023-02-22T05:45:41;99169.13;;;8.84;69.67
11605;BME280;5858;43.076;25.626;2023-02-22T05:48:08;99199.66;;;9.13;69.41
11605;BME280;5858;43.076;25.626;2023-02-22T05:50:38;99140.69;;;8.77;69.35
11605;BME280;5858;43.076;25.626;2023-02-22T05:53:06;99018.19;;;8.13;68.53
11605;BME280;5858;43.076;25.626;2023-02-22T05:55:33;99208.84;;;9.33;68.06
11605;BME280;5858;43.076;25.626;2023-02-22T05:58:02;99051.75;;;8.31;67.64
11605;BME280;5858;43.076;25.626;2023-02-22T06:00:30;99163.78;;;9.15;67.40
11605;BME280;5858;43.076;25.626;2023-02-22T06:03:00;99206.69;;;9.74;67.69
11605;BME280;5858;43.076;25.626;2023-02-22T06:05:28;99219.63;;;10.38;64.96
11605;BME280;5858;43.076;25.626;2023-02-22T06:07:59;99221.03;;;11.14;61.50
11605;BME280;5858;43.076;25.626;2023-02-22T06:10:28;99157.03;;;11.41;57.35
11605;BME280;5858;43.076;25.626;2023-02-22T06:13:01;99166.53;;;11.92;55.18
11605;BME280;5858;43.076;25.626;2023-02-22T06:15:57;99238.94;;;12.89;53.45
11605;BME280;5858;43.076;25.626;2023-02-22T06:22:37;99249.13;;;14.08;48.76
11605;BME280;5858;43.076;25.626;2023-02-22T06:25:21;99259.72;;;14.23;47.52
11605;BME280;5858;43.076;25.626;2023-02-22T06:27:56;99266.31;;;14.00;48.06
11605;BME280;5858;43.076;25.626;2023-02-22T06:30:28;99239.84;;;13.84;48.48
11605;BME280;5858;43.076;25.626;2023-02-22T06:33:26;99248.06;;;13.63;49.17
11605;BME280;5858;43.076;25.626;2023-02-22T06:36:19;99142.84;;;12.78;49.82
11605;BME280;5858;43.076;25.626;2023-02-22T06:41:26;99194.31;;;12.88;50.83
11605;BME280;5858;43.076;25.626;2023-02-22T06:42:41;99071.97;;;12.12;51.63
11605;BME280;5858;43.076;25.626;2023-02-22T06:56:10;99116.41;;;12.27;52.02
11605;BME280;5858;43.076;25.626;2023-02-22T06:59:07;99090.19;;;12.29;51.46
11605;BME280;5858;43.076;25.626;2023-02-22T07:01:42;99268.47;;;13.31;50.40
11605;BME280;5858;43.076;25.626;2023-02-22T07:04:13;99188.16;;;13.01;50.31
11605;BME280;5858;43.076;25.626;2023-02-22T07:06:47;99109.09;;;12.56;50.65
11605;BME280;5858;43.076;25.626;2023-02-22T07:09:21;99263.38;;;13.62;50.53
11605;BME280;5858;43.076;25.626;2023-02-22T07:12:02;99048.84;;;12.65;50.04
11605;BME280;5858;43.076;25.626;2023-02-22T07:14:45;99196.59;;;13.79;49.74
11605;BME280;5858;43.076;25.626;2023-02-22T07:17:15;99061.69;;;12.89;49.32
11605;BME280;5858;43.076;25.626;2023-02-22T07:19:47;99222.84;;;14.10;48.73
11605;BME280;5858;43.076;25.626;2023-02-22T07:22:22;99148.78;;;13.68;48.19
11605;BME280;5858;43.076;25.626;2023-02-22T07:25:10;99024.31;;;13.08;48.37
11605;BME280;5858;43.076;25.626;2023-02-22T07:27:47;99247.47;;;14.40;48.00
11605;BME280;5858;43.076;25.626;2023-02-22T07:30:29;99229.47;;;14.47;47.22
11605;BME280;5858;43.076;25.626;2023-02-22T07:33:11;99032.44;;;13.28;46.29
11605;BME280;5858;43.076;25.626;2023-02-22T07:36:14;99059.88;;;13.56;46.24
11605;BME280;5858;43.076;25.626;2023-02-22T07:38:56;99050.34;;;13.60;46.08
11605;BME280;5858;43.076;25.626;2023-02-22T07:41:27;99163.81;;;14.41;45.76
11605;BME280;5858;43.076;25.626;2023-02-22T07:44:45;99230.81;;;14.89;45.61
11605;BME280;5858;43.076;25.626;2023-02-22T07:47:18;99034.44;;;13.72;45.76
11605;BME280;5858;43.076;25.626;2023-02-22T07:50:24;99167.28;;;14.68;45.46
11605;BME280;5858;43.076;25.626;2023-02-22T07:53:05;99057.09;;;14.02;45.22
11605;BME280;5858;43.076;25.626;2023-02-22T07:59:39;99046.34;;;14.02;44.61
11605;BME280;5858;43.076;25.626;2023-02-22T08:02:30;99156.66;;;14.80;44.37
11605;BME280;5858;43.076;25.626;2023-02-22T08:05:01;99072.97;;;14.24;44.72
11605;BME280;5858;43.076;25.626;2023-02-22T08:07:28;99175.53;;;14.73;44.55
11605;BME280;5858;43.076;25.626;2023-02-22T08:09:56;99142.16;;;14.81;44.41
11605;BME280;5858;43.076;25.626;2023-02-22T08:12:24;99235.31;;;15.40;44.44
11605;BME280;5858;43.076;25.626;2023-02-22T08:14:53;99163.34;;;15.09;43.79
11605;BME280;5858;43.076;25.626;2023-02-22T08:17:25;99065.81;;;14.56;43.82
11605;BME280;5858;43.076;25.626;2023-02-22T08:19:58;99085.66;;;14.61;44.72
11605;BME280;5858;43.076;25.626;2023-02-22T08:22:28;99068.25;;;14.64;44.35
11605;BME280;5858;43.076;25.626;2023-02-22T08:24:55;99129.34;;;15.08;44.42
11605;BME280;5858;43.076;25.626;2023-02-22T08:27:27;99159.44;;;15.36;43.75
11605;BME280;5858;43.076;25.626;2023-02-22T08:29:55;99150.91;;;15.39;43.74
11605;BME280;5858;43.076;25.626;2023-02-22T08:32:24;99193.91;;;15.66;43.56
11605;BME280;5858;43.076;25.626;2023-02-22T08:34:55;99223.09;;;15.76;43.94
11605;BME280;5858;43.076;25.626;2023-02-22T08:37:27;99147.28;;;15.27;43.95
11605;BME280;5858;43.076;25.626;2023-02-22T08:40:05;99179.22;;;15.55;43.90
11605;BME280;5858;43.076;25.626;2023-02-22T08:42:38;99242.50;;;15.91;43.69
11605;BME280;5858;43.076;25.626;2023-02-22T08:45:21;99248.88;;;15.96;43.90
11605;BME280;5858;43.076;25.626;2023-02-22T09:01:51;99067.91;;;14.92;43.77
11605;BME280;5858;43.076;25.626;2023-02-22T09:04:41;99152.25;;;15.62;43.55
11605;BME280;5858;43.076;25.626;2023-02-22T09:07:22;99131.72;;;15.61;43.31
11605;BME280;5858;43.076;25.626;2023-02-22T09:10:20;99216.59;;;16.08;43.18
11605;BME280;5858;43.076;25.626;2023-02-22T09:13:56;99137.94;;;15.61;43.37
11605;BME280;5858;43.076;25.626;2023-02-22T09:16:37;99222.13;;;16.20;43.35
11605;BME280;5858;43.076;25.626;2023-02-22T09:19:28;99180.09;;;15.81;43.33
11605;BME280;5858;43.076;25.626;2023-02-22T09:22:39;99032.09;;;15.16;42.98
11605;BME280;5858;43.076;25.626;2023-02-22T09:25:37;99052.09;;;15.27;42.93
11605;BME280;5858;43.076;25.626;2023-02-22T09:28:11;99120.81;;;15.74;43.10
11605;BME280;5858;43.076;25.626;2023-02-22T09:31:04;99063.03;;;15.32;43.06
11605;BME280;5858;43.076;25.626;2023-02-22T09:33:34;99211.56;;;16.36;42.74
11605;BME280;5858;43.076;25.626;2023-02-22T09:36:08;99056.31;;;15.41;42.59
11605;BME280;5858;43.076;25.626;2023-02-22T09:38:37;99175.94;;;16.28;43.18
11605;BME280;5858;43.076;25.626;2023-02-22T09:41:31;99204.09;;;16.57;42.87
11605;BME280;5858;43.076;25.626;2023-02-22T09:44:19;99131.16;;;16.20;42.19
11605;BME280;5858;43.076;25.626;2023-02-22T09:51:01;99238.84;;;16.90;42.07
11605;BME280;5858;43.076;25.626;2023-02-22T09:54:13;99104.84;;;16.16;41.48
11605;BME280;5858;43.076;25.626;2023-02-22T09:57:33;99087.97;;;16.20;41.45
11605;BME280;5858;43.076;25.626;2023-02-22T10:00:30;99139.63;;;16.60;41.43
11605;BME280;5858;43.076;25.626;2023-02-22T10:03:35;99171.06;;;16.91;41.34
11605;BME280;5858;43.076;25.626;2023-02-22T10:11:00;99143.19;;;17.09;40.12
11605;BME280;5858;43.076;25.626;2023-02-22T10:13:53;99130.88;;;16.95;40.53
11605;BME280;5858;43.076;25.626;2023-02-22T10:16:55;98993.97;;;16.29;40.07
11605;BME280;5858;43.076;25.626;2023-02-22T10:19:34;99142.75;;;17.24;40.07
11605;BME280;5858;43.076;25.626;2023-02-22T10:22:26;99114.16;;;17.16;39.41
11605;BME280;5858;43.076;25.626;2023-02-22T10:28:20;99091.47;;;17.17;39.27
11605;BME280;5858;43.076;25.626;2023-02-22T10:30:52;99058.25;;;16.98;39.17
11605;BME280;5858;43.076;25.626;2023-02-22T10:33:29;99122.56;;;17.38;39.30
11605;BME280;5858;43.076;25.626;2023-02-22T10:36:01;98987.53;;;16.60;39.17
11605;BME280;5858;43.076;25.626;2023-02-22T10:38:36;99144.78;;;17.70;39.07
11605;BME280;5858;43.076;25.626;2023-02-22T10:41:19;99043.28;;;17.26;39.06
11605;BME280;5858;43.076;25.626;2023-02-22T10:44:14;98988.44;;;16.84;39.12
11605;BME280;5858;43.076;25.626;2023-02-22T10:50:29;99066.97;;;17.66;38.68
11605;BME280;5858;43.076;25.626;2023-02-22T10:53:40;98991.91;;;17.26;38.11
11605;BME280;5858;43.076;25.626;2023-02-22T10:57:16;98971.69;;;17.17;37.77
11605;BME280;5858;43.076;25.626;2023-02-22T11:03:30;98994.72;;;17.19;37.14
11605;BME280;5858;43.076;25.626;2023-02-22T11:06:19;99001.91;;;17.25;37.17
11605;BME280;5858;43.076;25.626;2023-02-22T11:15:42;99123.72;;;17.96;37.05
11605;BME280;5858;43.076;25.626;2023-02-22T11:18:32;99092.88;;;17.73;37.27
11605;BME280;5858;43.076;25.626;2023-02-22T11:21:08;98964.16;;;17.07;37.85
11605;BME280;5858;43.076;25.626;2023-02-22T11:24:04;99004.72;;;17.42;37.91
11605;BME280;5858;43.076;25.626;2023-02-22T11:27:00;98940.16;;;16.99;37.45
11605;BME280;5858;43.076;25.626;2023-02-22T11:36:53;98960.06;;;17.05;38.17
11605;BME280;5858;43.076;25.626;2023-02-22T11:39:31;99092.03;;;17.96;38.00
11605;BME280;5858;43.076;25.626;2023-02-22T11:42:37;99095.81;;;17.95;38.68
11605;BME280;5858;43.076;25.626;2023-02-22T11:45:30;98953.22;;;17.14;38.21
11605;BME280;5858;43.076;25.626;2023-02-22T11:48:35;98947.34;;;17.05;38.06
11605;BME280;5858;43.076;25.626;2023-02-22T11:51:25;98986.84;;;17.29;38.57
11605;BME280;5858;43.076;25.626;2023-02-22T11:58:39;98977.94;;;17.52;38.33
11605;BME280;5858;43.076;25.626;2023-02-22T12:01:16;98940.88;;;17.18;38.18
11605;BME280;5858;43.076;25.626;2023-02-22T12:07:31;98912.53;;;16.85;38.48
11605;BME280;5858;43.076;25.626;2023-02-22T12:10:32;99075.22;;;17.82;38.37
11605;BME280;5858;43.076;25.626;2023-02-22T12:17:36;99108.91;;;17.98;38.44
11605;BME280;5858;43.076;25.626;2023-02-22T12:20:35;98994.72;;;17.43;38.58
11605;BME280;5858;43.076;25.626;2023-02-22T12:23:17;98894.69;;;16.84;38.71
11605;BME280;5858;43.076;25.626;2023-02-22T12:33:30;98906.78;;;16.82;39.27
11605;BME280;5858;43.076;25.626;2023-02-22T12:42:11;99040.16;;;17.99;39.06
11605;BME280;5858;43.076;25.626;2023-02-22T12:49:06;99032.38;;;18.03;39.43
11605;BME280;5858;43.076;25.626;2023-02-22T12:55:24;98906.09;;;17.21;39.45
11605;BME280;5858;43.076;25.626;2023-02-22T13:04:48;98943.94;;;17.68;39.45
11605;BME280;5858;43.076;25.626;2023-02-22T13:07:49;99001.56;;;17.80;39.43
11605;BME280;5858;43.076;25.626;2023-02-22T13:13:58;98958.94;;;17.87;39.09
11605;BME280;5858;43.076;25.626;2023-02-22T13:16:55;98884.53;;;17.38;39.05
11605;BME280;5858;43.076;25.626;2023-02-22T13:23:05;99063.97;;;18.37;39.43
11605;BME280;5858;43.076;25.626;2023-02-22T13:26:08;99058.56;;;18.25;39.43
11605;BME280;5858;43.076;25.626;2023-02-22T13:28:44;99088.16;;;18.15;39.82
11605;BME280;5858;43.076;25.626;2023-02-22T13:38:33;98957.34;;;17.63;40.36
11605;BME280;5858;43.076;25.626;2023-02-22T13:41:55;98899.84;;;17.21;39.80
11605;BME280;5858;43.076;25.626;2023-02-22T13:48:00;98974.03;;;17.48;39.86
11605;BME280;5858;43.076;25.626;2023-02-22T14:36:46;98910.25;;;16.59;41.89
11605;BME280;5858;43.076;25.626;2023-02-22T14:50:26;99066.09;;;17.30;43.00
11605;BME280;5858;43.076;25.626;2023-02-22T15:35:54;99086.94;;;16.51;46.33
11605;BME280;5858;43.076;25.626;2023-02-22T15:45:54;99078.88;;;16.33;47.20
11605;BME280;5858;43.076;25.626;2023-02-22T16:17:27;99109.25;;;15.35;50.80
11605;BME280;5858;43.076;25.626;2023-02-22T16:27:29;99095.06;;;15.22;51.35
11605;BME280;5858;43.076;25.626;2023-02-22T16:30:54;99105.91;;;15.15;51.56
11605;BME280;5858;43.076;25.626;2023-02-22T16:33:26;99113.88;;;14.97;52.27
11605;BME280;5858;43.076;25.626;2023-02-22T16:36:42;99018.72;;;14.27;52.24
11605;BME280;5858;43.076;25.626;2023-02-22T16:39:47;98983.84;;;14.00;52.86
11605;BME280;5858;43.076;25.626;2023-02-22T16:43:03;99066.03;;;14.54;52.65
11605;BME280;5858;43.076;25.626;2023-02-22T16:48:48;99107.59;;;14.65;53.12
11605;BME280;5858;43.076;25.626;2023-02-22T16:51:33;98972.00;;;13.50;53.74
11605;BME280;5858;43.076;25.626;2023-02-22T16:54:11;99055.50;;;13.88;54.27
11605;BME280;5858;43.076;25.626;2023-02-22T17:00:01;98952.03;;;13.26;54.98
11605;BME280;5858;43.076;25.626;2023-02-22T17:06:28;98968.72;;;13.48;54.66
11605;BME280;5858;43.076;25.626;2023-02-22T17:09:15;98961.09;;;13.38;55.07
11605;BME280;5858;43.076;25.626;2023-02-22T17:28:08;99110.69;;;14.04;56.08
11605;BME280;5858;43.076;25.626;2023-02-22T17:30:42;99065.88;;;13.58;55.94
11605;BME280;5858;43.076;25.626;2023-02-22T17:34:09;99097.25;;;13.97;56.62
11605;BME280;5858;43.076;25.626;2023-02-22T17:36:53;99097.09;;;13.79;56.64
11605;BME280;5858;43.076;25.626;2023-02-22T17:39:53;98979.28;;;12.83;57.61
11605;BME280;5858;43.076;25.626;2023-02-22T17:47:01;99099.81;;;13.46;58.44
11605;BME280;5858;43.076;25.626;2023-02-22T17:49:42;99076.00;;;13.49;58.57
11605;BME280;5858;43.076;25.626;2023-02-22T17:56:25;99021.22;;;12.91;59.30
11605;BME280;5858;43.076;25.626;2023-02-22T17:59:05;99111.38;;;13.46;59.52
11605;BME280;5858;43.076;25.626;2023-02-22T18:01:46;99140.97;;;13.73;59.34
11605;BME280;5858;43.076;25.626;2023-02-22T18:04:24;99068.38;;;13.33;59.46
11605;BME280;5858;43.076;25.626;2023-02-22T18:07:01;99035.06;;;13.01;59.53
11605;BME280;5858;43.076;25.626;2023-02-22T18:09:44;99107.66;;;13.47;59.48
11605;BME280;5858;43.076;25.626;2023-02-22T18:19:12;98943.44;;;12.10;61.64
11605;BME280;5858;43.076;25.626;2023-02-22T18:35:34;98979.47;;;11.88;63.56
11605;BME280;5858;43.076;25.626;2023-02-22T18:42:50;99087.59;;;12.43;63.68
11605;BME280;5858;43.076;25.626;2023-02-22T18:45:28;99159.13;;;12.70;64.86
11605;BME280;5858;43.076;25.626;2023-02-22T18:48:08;99169.03;;;12.70;64.85
11605;BME280;5858;43.076;25.626;2023-02-22T18:50:52;99009.59;;;11.62;65.30
11605;BME280;5858;43.076;25.626;2023-02-22T18:53:23;99120.00;;;12.41;65.08
11605;BME280;5858;43.076;25.626;2023-02-22T18:56:34;98998.56;;;11.44;65.59
11605;BME280;5858;43.076;25.626;2023-02-22T18:59:31;99161.28;;;12.40;66.35
11605;BME280;5858;43.076;25.626;2023-02-22T19:04:26;99183.34;;;12.36;66.59
11605;BME280;5858;43.076;25.626;2023-02-22T19:05:23;99167.84;;;12.31;66.85
11605;BME280;5858;43.076;25.626;2023-02-22T19:07:55;99023.91;;;11.41;67.06
11605;BME280;5858;43.076;25.626;2023-02-22T19:10:30;99070.41;;;11.61;66.75
11605;BME280;5858;43.076;25.626;2023-02-22T19:13:32;99174.06;;;12.38;66.44
11605;BME280;5858;43.076;25.626;2023-02-22T19:16:13;99173.75;;;12.26;66.41
11605;BME280;5858;43.076;25.626;2023-02-22T19:19:09;99057.75;;;11.49;67.11
11605;BME280;5858;43.076;25.626;2023-02-22T19:21:51;99204.69;;;12.22;67.06
11605;BME280;5858;43.076;25.626;2023-02-22T19:24:24;99149.19;;;11.88;67.52
11605;BME280;5858;43.076;25.626;2023-02-22T19:26:56;99130.13;;;11.55;67.73
11605;BME280;5858;43.076;25.626;2023-02-22T19:29:24;99083.16;;;11.31;67.53
11605;BME280;5858;43.076;25.626;2023-02-22T19:31:58;99154.25;;;11.55;67.77
11605;BME280;5858;43.076;25.626;2023-02-22T19:35:13;99034.63;;;10.70;67.91
11605;BME280;5858;43.076;25.626;2023-02-22T19:37:36;99093.75;;;11.40;68.05
11605;BME280;5858;43.076;25.626;2023-02-22T19:40:10;99037.84;;;10.87;67.84
11605;BME280;5858;43.076;25.626;2023-02-22T19:42:42;99180.91;;;11.63;69.00
11605;BME280;5858;43.076;25.626;2023-02-22T19:45:16;99204.91;;;11.50;69.22
11605;BME280;5858;43.076;25.626;2023-02-22T19:47:52;99139.03;;;10.92;69.81
11605;BME280;5858;43.076;25.626;2023-02-22T19:50:21;99210.38;;;11.21;70.67
11605;BME280;5858;43.076;25.626;2023-02-22T19:52:53;99209.53;;;11.20;70.61
11605;BME280;5858;43.076;25.626;2023-02-22T19:55:22;99209.63;;;11.27;70.29
11605;BME280;5858;43.076;25.626;2023-02-22T19:58:08;99084.34;;;10.44;70.73
11605;BME280;5858;43.076;25.626;2023-02-22T20:00:39;99169.94;;;11.16;70.47